sensor_id;sensor_type;location;lat;lon;timestamp;temperature;humidity
64685;DHT22;51109;47.414;18.954;2023-02-23T00:01:58;8.30;99.90
64685;DHT22;51109;47.414;18.954;2023-02-23T00:04:30;8.30;99.90
64685;DHT22;51109;47.414;18.954;2023-02-23T00:06:56;8.30;99.90
64685;DHT22;51109;47.414;18.954;2023-02-23T00:09:22;8.30;99.90
64685;DHT22;51109;47.414;18.954;2023-02-23T00:11:53;8.30;99.90
64685;DHT22;51109;47.414;18.954;2023-02-23T00:14:20;8.30;99.90
64685;DHT22;51109;47.414;18.954;2023-02-23T00:16:47;8.30;99.90
64685;DHT22;51109;47.414;18.954;2023-02-23T00:19:13;8.20;99.90
64685;DHT22;51109;47.414;18.954;2023-02-23T00:21:40;8.30;99.90
64685;DHT22;51109;47.414;18.954;2023-02-23T00:24:11;8.20;99.90
64685;DHT22;51109;47.414;18.954;2023-02-23T00:26:41;8.20;99.90
64685;DHT22;51109;47.414;18.954;2023-02-23T00:29:12;8.20;99.90
64685;DHT22;51109;47.414;18.954;2023-02-23T00:31:38;8.20;99.90
64685;DHT22;51109;47.414;18.954;2023-02-23T00:34:05;8.10;99.90
64685;DHT22;51109;47.414;18.954;2023-02-23T00:36:34;8.10;99.90
64685;DHT22;51109;47.414;18.954;2023-02-23T00:39:03;8.10;99.90
64685;DHT22;51109;47.414;18.954;2023-02-23T00:41:56;8.10;99.90
64685;DHT22;51109;47.414;18.954;2023-02-23T00:44:27;8.10;99.90
64685;DHT22;51109;47.414;18.954;2023-02-23T00:46:53;8.10;99.90
64685;DHT22;51109;47.414;18.954;2023-02-23T00:49:20;8.10;99.90
64685;DHT22;51109;47.414;18.954;2023-02-23T00:51:47;8.10;99.90
64685;DHT22;51109;47.414;18.954;2023-02-23T00:54:14;8.00;99.90
64685;DHT22;51109;47.414;18.954;2023-02-23T00:56:40;8.00;99.90
64685;DHT22;51109;47.414;18.954;2023-02-23T00:59:07;8.00;99.90
64685;DHT22;51109;47.414;18.954;2023-02-23T01:01:33;8.00;99.90
64685;DHT22;51109;47.414;18.954;2023-02-23T01:04:00;8.00;99.90
64685;DHT22;51109;47.414;18.954;2023-02-23T01:06:26;8.00;99.90
64685;DHT22;51109;47.414;18.954;2023-02-23T01:08:53;7.90;99.90
64685;DHT22;51109;47.414;18.954;2023-02-23T01:11:23;7.90;99.90
64685;DHT22;51109;47.414;18.954;2023-02-23T01:13:54;7.90;99.90
64685;DHT22;51109;47.414;18.954;2023-02-23T01:16:23;7.80;99.90
64685;DHT22;51109;47.414;18.954;2023-02-23T01:18:55;7.80;99.90
64685;DHT22;51109;47.414;18.954;2023-02-23T01:21:29;7.80;99.90
64685;DHT22;51109;47.414;18.954;2023-02-23T01:23:55;7.80;99.90
64685;DHT22;51109;47.414;18.954;2023-02-23T01:26:26;7.80;99.90
64685;DHT22;51109;47.414;18.954;2023-02-23T01:28:57;7.80;99.90
64685;DHT22;51109;47.414;18.954;2023-02-23T01:31:25;7.80;99.90
64685;DHT22;51109;47.414;18.954;2023-02-23T01:33:59;7.80;99.90
64685;DHT22;51109;47.414;18.954;2023-02-23T01:36:25;7.70;99.90
64685;DHT22;51109;47.414;18.954;2023-02-23T01:38:54;7.70;99.90
64685;DHT22;51109;47.414;18.954;2023-02-23T01:41:25;7.60;99.90
64685;DHT22;51109;47.414;18.954;2023-02-23T01:44:00;7.60;99.90
64685;DHT22;51109;47.414;18.954;2023-02-23T01:46:31;7.60;99.90
64685;DHT22;51109;47.414;18.954;2023-02-23T01:48:58;7.60;99.90
64685;DHT22;51109;47.414;18.954;2023-02-23T01:51:30;7.60;99.90
64685;DHT22;51109;47.414;18.954;2023-02-23T01:56:35;7.50;99.90
64685;DHT22;51109;47.414;18.954;2023-02-23T01:59:06;7.50;99.90
64685;DHT22;51109;47.414;18.954;2023-02-23T02:01:32;7.50;99.90
64685;DHT22;51109;47.414;18.954;2023-02-23T02:04:02;7.50;99.90
64685;DHT22;51109;47.414;18.954;2023-02-23T02:06:33;7.50;99.90
64685;DHT22;51109;47.414;18.954;2023-02-23T02:09:08;7.50;99.90
64685;DHT22;51109;47.414;18.954;2023-02-23T02:11:36;7.40;99.90
64685;DHT22;51109;47.414;18.954;2023-02-23T02:33:52;7.40;99.90
64685;DHT22;51109;47.414;18.954;2023-02-23T02:39:25;7.40;99.90
64685;DHT22;51109;47.414;18.954;2023-02-23T02:42:31;7.40;99.90
64685;DHT22;51109;47.414;18.954;2023-02-23T02:47:42;7.40;99.90
64685;DHT22;51109;47.414;18.954;2023-02-23T02:50:29;7.40;99.90
64685;DHT22;51109;47.414;18.954;2023-02-23T02:53:08;7.40;99.90
64685;DHT22;51109;47.414;18.954;2023-02-23T02:55:37;7.30;99.90
64685;DHT22;51109;47.414;18.954;2023-02-23T02:58:07;7.30;99.90
64685;DHT22;51109;47.414;18.954;2023-02-23T03:00:39;7.40;99.90
64685;DHT22;51109;47.414;18.954;2023-02-23T03:03:28;7.30;99.90
64685;DHT22;51109;47.414;18.954;2023-02-23T03:06:13;7.30;99.90
64685;DHT22;51109;47.414;18.954;2023-02-23T03:16:10;7.30;99.90
64685;DHT22;51109;47.414;18.954;2023-02-23T03:18:58;7.40;99.90
64685;DHT22;51109;47.414;18.954;2023-02-23T03:31:25;7.40;99.90
64685;DHT22;51109;47.414;18.954;2023-02-23T03:34:15;7.30;99.90
64685;DHT22;51109;47.414;18.954;2023-02-23T03:37:23;7.40;99.90
64685;DHT22;51109;47.414;18.954;2023-02-23T03:40:15;7.30;99.90
64685;DHT22;51109;47.414;18.954;2023-02-23T03:43:01;7.40;99.90
64685;DHT22;51109;47.414;18.954;2023-02-23T03:45:49;7.40;99.90
64685;DHT22;51109;47.414;18.954;2023-02-23T03:48:35;7.40;99.90
64685;DHT22;51109;47.414;18.954;2023-02-23T03:51:21;7.40;99.90
64685;DHT22;51109;47.414;18.954;2023-02-23T03:54:12;7.40;99.90
64685;DHT22;51109;47.414;18.954;2023-02-23T03:57:02;7.40;99.90
64685;DHT22;51109;47.414;18.954;2023-02-23T03:59:54;7.40;99.90
64685;DHT22;51109;47.414;18.954;2023-02-23T04:02:44;7.40;99.90
64685;DHT22;51109;47.414;18.954;2023-02-23T04:05:33;7.40;99.90
64685;DHT22;51109;47.414;18.954;2023-02-23T04:08:20;7.40;99.90
64685;DHT22;51109;47.414;18.954;2023-02-23T04:11:15;7.40;99.90
64685;DHT22;51109;47.414;18.954;2023-02-23T04:14:05;7.40;99.90
64685;DHT22;51109;47.414;18.954;2023-02-23T04:16:32;7.40;99.90
64685;DHT22;51109;47.414;18.954;2023-02-23T04:18:58;7.40;99.90
64685;DHT22;51109;47.414;18.954;2023-02-23T04:21:25;7.30;99.90
64685;DHT22;51109;47.414;18.954;2023-02-23T04:23:51;7.40;99.90
64685;DHT22;51109;47.414;18.954;2023-02-23T04:26:17;7.30;99.90
64685;DHT22;51109;47.414;18.954;2023-02-23T04:28:44;7.30;99.90
64685;DHT22;51109;47.414;18.954;2023-02-23T04:31:10;7.30;99.90
64685;DHT22;51109;47.414;18.954;2023-02-23T04:33:36;7.30;99.90
64685;DHT22;51109;47.414;18.954;2023-02-23T04:36:02;7.30;99.90
64685;DHT22;51109;47.414;18.954;2023-02-23T04:38:28;7.30;99.90
64685;DHT22;51109;47.414;18.954;2023-02-23T04:40:54;7.30;99.90
64685;DHT22;51109;47.414;18.954;2023-02-23T04:43:20;7.20;99.90
64685;DHT22;51109;47.414;18.954;2023-02-23T04:45:46;7.20;99.90
64685;DHT22;51109;47.414;18.954;2023-02-23T04:48:12;7.10;99.90
64685;DHT22;51109;47.414;18.954;2023-02-23T04:50:38;7.10;99.90
64685;DHT22;51109;47.414;18.954;2023-02-23T04:53:04;7.20;99.90
64685;DHT22;51109;47.414;18.954;2023-02-23T04:55:30;7.10;99.90
64685;DHT22;51109;47.414;18.954;2023-02-23T04:58:00;7.20;99.90
64685;DHT22;51109;47.414;18.954;2023-02-23T05:00:27;7.10;99.90
64685;DHT22;51109;47.414;18.954;2023-02-23T05:02:54;7.10;99.90
64685;DHT22;51109;47.414;18.954;2023-02-23T05:05:20;7.10;99.90
64685;DHT22;51109;47.414;18.954;2023-02-23T05:07:46;7.00;99.90
64685;DHT22;51109;47.414;18.954;2023-02-23T05:10:12;7.00;99.90
64685;DHT22;51109;47.414;18.954;2023-02-23T05:12:39;7.00;99.90
64685;DHT22;51109;47.414;18.954;2023-02-23T05:15:05;7.10;99.90
64685;DHT22;51109;47.414;18.954;2023-02-23T05:17:31;7.10;99.90
64685;DHT22;51109;47.414;18.954;2023-02-23T05:19:58;7.00;99.90
64685;DHT22;51109;47.414;18.954;2023-02-23T05:22:24;7.00;99.90
64685;DHT22;51109;47.414;18.954;2023-02-23T05:24:50;7.00;99.90
64685;DHT22;51109;47.414;18.954;2023-02-23T05:27:16;7.00;99.90
64685;DHT22;51109;47.414;18.954;2023-02-23T05:29:43;7.00;99.90
64685;DHT22;51109;47.414;18.954;2023-02-23T05:32:09;7.10;99.90
64685;DHT22;51109;47.414;18.954;2023-02-23T05:34:35;7.00;99.90
64685;DHT22;51109;47.414;18.954;2023-02-23T05:37:03;7.00;99.90
64685;DHT22;51109;47.414;18.954;2023-02-23T05:39:30;7.00;99.90
64685;DHT22;51109;47.414;18.954;2023-02-23T05:41:56;6.90;99.90
64685;DHT22;51109;47.414;18.954;2023-02-23T05:44:22;6.90;99.90
64685;DHT22;51109;47.414;18.954;2023-02-23T05:46:49;7.00;99.90
64685;DHT22;51109;47.414;18.954;2023-02-23T05:49:15;7.00;99.90
64685;DHT22;51109;47.414;18.954;2023-02-23T05:51:41;7.00;99.90
64685;DHT22;51109;47.414;18.954;2023-02-23T05:54:08;7.00;99.90
64685;DHT22;51109;47.414;18.954;2023-02-23T05:56:34;7.00;99.90
64685;DHT22;51109;47.414;18.954;2023-02-23T05:59:00;7.00;99.90
64685;DHT22;51109;47.414;18.954;2023-02-23T06:01:30;7.00;99.90
64685;DHT22;51109;47.414;18.954;2023-02-23T06:03:56;7.00;99.90
64685;DHT22;51109;47.414;18.954;2023-02-23T06:06:23;7.00;99.90
64685;DHT22;51109;47.414;18.954;2023-02-23T06:08:51;7.00;99.90
64685;DHT22;51109;47.414;18.954;2023-02-23T06:11:17;7.00;99.90
64685;DHT22;51109;47.414;18.954;2023-02-23T06:13:43;7.00;99.90
64685;DHT22;51109;47.414;18.954;2023-02-23T06:16:09;7.00;99.90
64685;DHT22;51109;47.414;18.954;2023-02-23T06:18:35;7.00;99.90
64685;DHT22;51109;47.414;18.954;2023-02-23T06:21:02;7.00;99.90
64685;DHT22;51109;47.414;18.954;2023-02-23T06:23:29;7.00;99.90
64685;DHT22;51109;47.414;18.954;2023-02-23T06:25:55;7.10;99.90
64685;DHT22;51109;47.414;18.954;2023-02-23T06:28:22;7.10;99.90
64685;DHT22;51109;47.414;18.954;2023-02-23T06:30:51;7.10;99.90
64685;DHT22;51109;47.414;18.954;2023-02-23T06:33:17;7.00;99.90
64685;DHT22;51109;47.414;18.954;2023-02-23T06:35:43;7.00;99.90
64685;DHT22;51109;47.414;18.954;2023-02-23T06:38:10;7.00;99.90
64685;DHT22;51109;47.414;18.954;2023-02-23T06:40:37;7.10;99.90
64685;DHT22;51109;47.414;18.954;2023-02-23T06:43:03;7.10;99.90
64685;DHT22;51109;47.414;18.954;2023-02-23T06:45:30;7.10;99.90
64685;DHT22;51109;47.414;18.954;2023-02-23T06:47:57;7.10;99.90
64685;DHT22;51109;47.414;18.954;2023-02-23T06:50:23;7.10;99.90
64685;DHT22;51109;47.414;18.954;2023-02-23T06:52:49;7.20;99.90
64685;DHT22;51109;47.414;18.954;2023-02-23T06:55:15;7.20;99.90
64685;DHT22;51109;47.414;18.954;2023-02-23T06:57:41;7.20;99.90
64685;DHT22;51109;47.414;18.954;2023-02-23T07:00:10;7.30;99.90
64685;DHT22;51109;47.414;18.954;2023-02-23T07:02:40;7.30;99.90
64685;DHT22;51109;47.414;18.954;2023-02-23T07:05:07;7.30;99.90
64685;DHT22;51109;47.414;18.954;2023-02-23T07:07:33;7.30;99.90
64685;DHT22;51109;47.414;18.954;2023-02-23T07:09:59;7.40;99.90
64685;DHT22;51109;47.414;18.954;2023-02-23T07:12:25;7.40;99.90
64685;DHT22;51109;47.414;18.954;2023-02-23T07:14:51;7.30;99.90
64685;DHT22;51109;47.414;18.954;2023-02-23T07:17:17;7.30;99.90
64685;DHT22;51109;47.414;18.954;2023-02-23T07:19:43;7.40;99.90
64685;DHT22;51109;47.414;18.954;2023-02-23T07:22:09;7.30;99.90
64685;DHT22;51109;47.414;18.954;2023-02-23T07:24:36;7.30;99.90
64685;DHT22;51109;47.414;18.954;2023-02-23T07:27:03;7.40;99.90
64685;DHT22;51109;47.414;18.954;2023-02-23T07:29:29;7.40;99.90
64685;DHT22;51109;47.414;18.954;2023-02-23T07:31:55;7.50;99.90
64685;DHT22;51109;47.414;18.954;2023-02-23T07:34:21;7.50;99.90
64685;DHT22;51109;47.414;18.954;2023-02-23T07:36:46;7.60;99.90
64685;DHT22;51109;47.414;18.954;2023-02-23T07:39:12;7.50;99.90
64685;DHT22;51109;47.414;18.954;2023-02-23T07:41:38;7.60;99.90
64685;DHT22;51109;47.414;18.954;2023-02-23T07:44:04;7.60;99.90
64685;DHT22;51109;47.414;18.954;2023-02-23T07:46:30;7.70;99.90
64685;DHT22;51109;47.414;18.954;2023-02-23T07:48:56;7.70;99.90
64685;DHT22;51109;47.414;18.954;2023-02-23T07:51:22;7.70;99.90
64685;DHT22;51109;47.414;18.954;2023-02-23T07:53:48;7.70;99.90
64685;DHT22;51109;47.414;18.954;2023-02-23T07:56:15;7.80;99.90
64685;DHT22;51109;47.414;18.954;2023-02-23T07:58:43;7.80;99.90
64685;DHT22;51109;47.414;18.954;2023-02-23T08:01:10;7.90;99.90
64685;DHT22;51109;47.414;18.954;2023-02-23T08:03:36;7.90;99.90
64685;DHT22;51109;47.414;18.954;2023-02-23T08:06:02;8.00;99.90
64685;DHT22;51109;47.414;18.954;2023-02-23T08:08:28;7.90;99.90
64685;DHT22;51109;47.414;18.954;2023-02-23T08:11:01;7.90;99.90
64685;DHT22;51109;47.414;18.954;2023-02-23T08:13:28;8.00;99.90
64685;DHT22;51109;47.414;18.954;2023-02-23T08:15:54;8.00;99.90
64685;DHT22;51109;47.414;18.954;2023-02-23T08:18:20;8.00;99.90
64685;DHT22;51109;47.414;18.954;2023-02-23T08:20:46;8.00;99.90
64685;DHT22;51109;47.414;18.954;2023-02-23T08:23:12;8.00;99.90
64685;DHT22;51109;47.414;18.954;2023-02-23T08:25:38;8.00;99.90
64685;DHT22;51109;47.414;18.954;2023-02-23T08:28:04;8.00;99.90
64685;DHT22;51109;47.414;18.954;2023-02-23T08:30:32;8.00;99.90
64685;DHT22;51109;47.414;18.954;2023-02-23T08:32:58;8.00;99.90
64685;DHT22;51109;47.414;18.954;2023-02-23T08:35:27;7.90;99.90
64685;DHT22;51109;47.414;18.954;2023-02-23T08:37:53;7.90;99.90
64685;DHT22;51109;47.414;18.954;2023-02-23T08:40:19;7.90;99.90
64685;DHT22;51109;47.414;18.954;2023-02-23T08:42:46;8.10;99.90
64685;DHT22;51109;47.414;18.954;2023-02-23T08:45:17;8.20;99.90
64685;DHT22;51109;47.414;18.954;2023-02-23T08:47:44;8.20;99.90
64685;DHT22;51109;47.414;18.954;2023-02-23T08:50:12;8.20;99.90
64685;DHT22;51109;47.414;18.954;2023-02-23T08:52:38;8.30;99.90
64685;DHT22;51109;47.414;18.954;2023-02-23T08:55:06;8.30;99.90
64685;DHT22;51109;47.414;18.954;2023-02-23T08:57:33;8.30;99.90
64685;DHT22;51109;47.414;18.954;2023-02-23T08:59:59;8.40;99.90
64685;DHT22;51109;47.414;18.954;2023-02-23T09:02:26;8.50;99.90
64685;DHT22;51109;47.414;18.954;2023-02-23T09:04:53;8.50;99.90
64685;DHT22;51109;47.414;18.954;2023-02-23T09:07:20;8.60;99.90
64685;DHT22;51109;47.414;18.954;2023-02-23T09:09:55;8.60;99.90
64685;DHT22;51109;47.414;18.954;2023-02-23T09:12:21;8.60;99.90
64685;DHT22;51109;47.414;18.954;2023-02-23T09:14:47;8.70;99.90
64685;DHT22;51109;47.414;18.954;2023-02-23T09:17:13;8.80;99.90
64685;DHT22;51109;47.414;18.954;2023-02-23T09:19:39;8.90;99.90
64685;DHT22;51109;47.414;18.954;2023-02-23T09:22:05;9.00;99.90
64685;DHT22;51109;47.414;18.954;2023-02-23T09:24:31;9.00;99.90
64685;DHT22;51109;47.414;18.954;2023-02-23T09:26:57;9.10;99.90
64685;DHT22;51109;47.414;18.954;2023-02-23T09:29:25;9.10;99.90
64685;DHT22;51109;47.414;18.954;2023-02-23T09:31:51;9.10;99.90
64685;DHT22;51109;47.414;18.954;2023-02-23T09:34:18;9.00;99.90
64685;DHT22;51109;47.414;18.954;2023-02-23T09:36:44;9.00;99.90
64685;DHT22;51109;47.414;18.954;2023-02-23T09:39:10;9.00;99.90
64685;DHT22;51109;47.414;18.954;2023-02-23T09:42:01;8.90;99.90
64685;DHT22;51109;47.414;18.954;2023-02-23T09:47:16;9.00;99.90
64685;DHT22;51109;47.414;18.954;2023-02-23T09:49:47;8.90;99.90
64685;DHT22;51109;47.414;18.954;2023-02-23T09:55:12;8.90;99.90
64685;DHT22;51109;47.414;18.954;2023-02-23T09:57:41;9.00;99.90
64685;DHT22;51109;47.414;18.954;2023-02-23T10:00:22;9.00;99.90
64685;DHT22;51109;47.414;18.954;2023-02-23T10:03:16;9.10;99.90
64685;DHT22;51109;47.414;18.954;2023-02-23T10:05:52;9.10;99.90
64685;DHT22;51109;47.414;18.954;2023-02-23T10:23:10;9.20;99.90
64685;DHT22;51109;47.414;18.954;2023-02-23T10:25:42;9.20;99.90
64685;DHT22;51109;47.414;18.954;2023-02-23T10:28:20;9.30;99.90
64685;DHT22;51109;47.414;18.954;2023-02-23T10:30:48;9.30;99.90
64685;DHT22;51109;47.414;18.954;2023-02-23T10:33:25;9.30;99.90
64685;DHT22;51109;47.414;18.954;2023-02-23T10:35:57;9.30;99.90
64685;DHT22;51109;47.414;18.954;2023-02-23T10:38:25;9.30;99.90
64685;DHT22;51109;47.414;18.954;2023-02-23T10:40:55;9.40;99.90
64685;DHT22;51109;47.414;18.954;2023-02-23T10:43:21;9.40;99.90
64685;DHT22;51109;47.414;18.954;2023-02-23T10:45:50;9.40;99.90
64685;DHT22;51109;47.414;18.954;2023-02-23T10:48:22;9.30;99.90
64685;DHT22;51109;47.414;18.954;2023-02-23T10:50:49;9.40;99.90
64685;DHT22;51109;47.414;18.954;2023-02-23T10:53:25;9.50;99.90
64685;DHT22;51109;47.414;18.954;2023-02-23T10:56:09;9.50;99.90
64685;DHT22;51109;47.414;18.954;2023-02-23T10:58:44;9.50;99.90
64685;DHT22;51109;47.414;18.954;2023-02-23T11:01:36;9.60;99.90
64685;DHT22;51109;47.414;18.954;2023-02-23T11:06:50;9.50;99.90
64685;DHT22;51109;47.414;18.954;2023-02-23T11:09:31;9.40;99.90
64685;DHT22;51109;47.414;18.954;2023-02-23T11:12:18;9.50;99.90
64685;DHT22;51109;47.414;18.954;2023-02-23T11:14:53;9.60;99.90
64685;DHT22;51109;47.414;18.954;2023-02-23T11:17:28;9.70;99.90
64685;DHT22;51109;47.414;18.954;2023-02-23T11:20:00;9.60;99.90
64685;DHT22;51109;47.414;18.954;2023-02-23T11:22:30;9.60;99.90
64685;DHT22;51109;47.414;18.954;2023-02-23T11:24:56;9.70;99.90
64685;DHT22;51109;47.414;18.954;2023-02-23T11:27:25;9.70;99.90
64685;DHT22;51109;47.414;18.954;2023-02-23T11:29:55;9.70;99.90
64685;DHT22;51109;47.414;18.954;2023-02-23T11:32:33;9.60;99.90
64685;DHT22;51109;47.414;18.954;2023-02-23T11:35:28;9.60;99.90
64685;DHT22;51109;47.414;18.954;2023-02-23T11:37:54;9.60;99.90
64685;DHT22;51109;47.414;18.954;2023-02-23T11:42:56;9.70;99.90
64685;DHT22;51109;47.414;18.954;2023-02-23T11:45:58;9.60;99.90
64685;DHT22;51109;47.414;18.954;2023-02-23T11:48:31;9.60;99.90
64685;DHT22;51109;47.414;18.954;2023-02-23T11:50:58;9.70;99.90
64685;DHT22;51109;47.414;18.954;2023-02-23T11:53:34;9.70;99.90
64685;DHT22;51109;47.414;18.954;2023-02-23T11:56:02;9.80;99.90
64685;DHT22;51109;47.414;18.954;2023-02-23T12:01:19;9.80;99.90
64685;DHT22;51109;47.414;18.954;2023-02-23T12:03:56;9.80;99.90
64685;DHT22;51109;47.414;18.954;2023-02-23T12:06:30;9.80;99.90
64685;DHT22;51109;47.414;18.954;2023-02-23T12:11:31;9.90;99.90
64685;DHT22;51109;47.414;18.954;2023-02-23T12:14:11;10.00;99.90
64685;DHT22;51109;47.414;18.954;2023-02-23T12:16:45;10.00;99.90
64685;DHT22;51109;47.414;18.954;2023-02-23T12:19:36;10.00;99.90
64685;DHT22;51109;47.414;18.954;2023-02-23T12:22:13;10.10;99.90
64685;DHT22;51109;47.414;18.954;2023-02-23T12:27:45;10.00;99.90
64685;DHT22;51109;47.414;18.954;2023-02-23T12:30:30;10.00;99.90
64685;DHT22;51109;47.414;18.954;2023-02-23T12:33:03;10.00;99.90
64685;DHT22;51109;47.414;18.954;2023-02-23T12:41:36;10.20;99.90
64685;DHT22;51109;47.414;18.954;2023-02-23T12:44:14;10.20;99.90
64685;DHT22;51109;47.414;18.954;2023-02-23T12:46:49;10.20;99.90
64685;DHT22;51109;47.414;18.954;2023-02-23T12:49:21;10.10;99.90
64685;DHT22;51109;47.414;18.954;2023-02-23T12:51:59;10.20;99.90
64685;DHT22;51109;47.414;18.954;2023-02-23T12:54:27;10.20;99.90
64685;DHT22;51109;47.414;18.954;2023-02-23T13:02:42;10.30;99.90
64685;DHT22;51109;47.414;18.954;2023-02-23T13:05:29;10.30;99.90
64685;DHT22;51109;47.414;18.954;2023-02-23T13:11:07;10.40;99.90
64685;DHT22;51109;47.414;18.954;2023-02-23T13:16:36;10.50;99.90
64685;DHT22;51109;47.414;18.954;2023-02-23T13:22:21;10.60;99.90
64685;DHT22;51109;47.414;18.954;2023-02-23T13:24:48;10.60;99.90
64685;DHT22;51109;47.414;18.954;2023-02-23T13:27:33;10.60;99.90
64685;DHT22;51109;47.414;18.954;2023-02-23T13:29:59;10.60;99.90
64685;DHT22;51109;47.414;18.954;2023-02-23T13:32:30;10.60;99.90
64685;DHT22;51109;47.414;18.954;2023-02-23T13:35:13;10.60;99.90
64685;DHT22;51109;47.414;18.954;2023-02-23T13:38:13;10.60;99.90
64685;DHT22;51109;47.414;18.954;2023-02-23T13:43:24;10.80;99.90
64685;DHT22;51109;47.414;18.954;2023-02-23T13:49:12;10.90;99.90
64685;DHT22;51109;47.414;18.954;2023-02-23T13:51:55;10.90;99.90
64685;DHT22;51109;47.414;18.954;2023-02-23T13:54:29;11.00;99.90
64685;DHT22;51109;47.414;18.954;2023-02-23T13:56:59;11.00;99.90
64685;DHT22;51109;47.414;18.954;2023-02-23T13:59:36;11.00;99.90
64685;DHT22;51109;47.414;18.954;2023-02-23T14:04:49;10.90;99.90
64685;DHT22;51109;47.414;18.954;2023-02-23T14:07:28;10.90;99.90
64685;DHT22;51109;47.414;18.954;2023-02-23T14:09:58;10.90;99.90
64685;DHT22;51109;47.414;18.954;2023-02-23T14:12:39;11.00;99.90
64685;DHT22;51109;47.414;18.954;2023-02-23T14:28:33;11.10;99.90
64685;DHT22;51109;47.414;18.954;2023-02-23T14:31:16;11.10;99.90
64685;DHT22;51109;47.414;18.954;2023-02-23T14:38:59;11.10;99.90
64685;DHT22;51109;47.414;18.954;2023-02-23T14:44:16;11.10;99.90
64685;DHT22;51109;47.414;18.954;2023-02-23T14:46:54;11.10;99.90
64685;DHT22;51109;47.414;18.954;2023-02-23T14:49:24;11.00;99.90
64685;DHT22;51109;47.414;18.954;2023-02-23T14:51:59;11.00;99.90
64685;DHT22;51109;47.414;18.954;2023-02-23T14:54:38;10.90;99.90
64685;DHT22;51109;47.414;18.954;2023-02-23T14:57:18;10.90;99.90
64685;DHT22;51109;47.414;18.954;2023-02-23T14:59:50;10.80;99.90
64685;DHT22;51109;47.414;18.954;2023-02-23T15:02:19;10.80;99.90
64685;DHT22;51109;47.414;18.954;2023-02-23T15:04:46;10.80;99.90
64685;DHT22;51109;47.414;18.954;2023-02-23T15:09:59;10.70;99.90
64685;DHT22;51109;47.414;18.954;2023-02-23T15:12:28;10.70;99.90
64685;DHT22;51109;47.414;18.954;2023-02-23T15:15:00;10.60;99.90
64685;DHT22;51109;47.414;18.954;2023-02-23T15:17:30;10.60;99.90
64685;DHT22;51109;47.414;18.954;2023-02-23T15:20:00;10.60;99.90
64685;DHT22;51109;47.414;18.954;2023-02-23T15:22:33;10.50;99.90
64685;DHT22;51109;47.414;18.954;2023-02-23T15:25:01;10.40;99.90
64685;DHT22;51109;47.414;18.954;2023-02-23T15:27:37;10.40;99.90
64685;DHT22;51109;47.414;18.954;2023-02-23T15:32:58;10.40;99.90
64685;DHT22;51109;47.414;18.954;2023-02-23T15:35:25;10.30;99.90
64685;DHT22;51109;47.414;18.954;2023-02-23T15:37:51;10.30;99.90
64685;DHT22;51109;47.414;18.954;2023-02-23T15:40:21;10.30;99.90
64685;DHT22;51109;47.414;18.954;2023-02-23T15:42:54;10.30;99.90
64685;DHT22;51109;47.414;18.954;2023-02-23T15:47:56;10.30;99.90
64685;DHT22;51109;47.414;18.954;2023-02-23T15:50:30;10.30;99.90
64685;DHT22;51109;47.414;18.954;2023-02-23T15:53:05;10.20;99.90
64685;DHT22;51109;47.414;18.954;2023-02-23T15:55:41;10.20;99.90
64685;DHT22;51109;47.414;18.954;2023-02-23T15:58:29;10.20;99.90
64685;DHT22;51109;47.414;18.954;2023-02-23T16:01:21;10.10;99.90
64685;DHT22;51109;47.414;18.954;2023-02-23T16:04:05;10.00;99.90
64685;DHT22;51109;47.414;18.954;2023-02-23T16:12:02;10.00;99.90
64685;DHT22;51109;47.414;18.954;2023-02-23T16:14:55;10.00;99.90
64685;DHT22;51109;47.414;18.954;2023-02-23T16:20:29;9.90;99.90
64685;DHT22;51109;47.414;18.954;2023-02-23T16:22:59;9.90;99.90
64685;DHT22;51109;47.414;18.954;2023-02-23T16:25:28;9.90;99.90
64685;DHT22;51109;47.414;18.954;2023-02-23T16:28:00;9.90;99.90
64685;DHT22;51109;47.414;18.954;2023-02-23T16:33:10;9.90;99.90
64685;DHT22;51109;47.414;18.954;2023-02-23T16:35:42;9.90;99.90
64685;DHT22;51109;47.414;18.954;2023-02-23T16:38:22;9.90;99.90
64685;DHT22;51109;47.414;18.954;2023-02-23T16:40:49;9.80;99.90
64685;DHT22;51109;47.414;18.954;2023-02-23T16:43:15;9.80;99.90
64685;DHT22;51109;47.414;18.954;2023-02-23T16:45:42;9.90;99.90
64685;DHT22;51109;47.414;18.954;2023-02-23T16:48:15;9.80;99.90
64685;DHT22;51109;47.414;18.954;2023-02-23T16:50:42;9.90;99.90
64685;DHT22;51109;47.414;18.954;2023-02-23T16:53:11;9.90;99.90
64685;DHT22;51109;47.414;18.954;2023-02-23T16:55:48;9.90;99.90
64685;DHT22;51109;47.414;18.954;2023-02-23T16:58:19;9.80;99.90
64685;DHT22;51109;47.414;18.954;2023-02-23T17:00:46;9.80;99.90
64685;DHT22;51109;47.414;18.954;2023-02-23T17:03:22;9.80;99.90
64685;DHT22;51109;47.414;18.954;2023-02-23T17:05:49;9.80;99.90
64685;DHT22;51109;47.414;18.954;2023-02-23T17:08:15;9.80;99.90
64685;DHT22;51109;47.414;18.954;2023-02-23T17:10:44;9.70;99.90
64685;DHT22;51109;47.414;18.954;2023-02-23T17:13:30;9.70;99.90
64685;DHT22;51109;47.414;18.954;2023-02-23T17:16:01;9.70;99.90
64685;DHT22;51109;47.414;18.954;2023-02-23T17:18:30;9.70;99.90
64685;DHT22;51109;47.414;18.954;2023-02-23T17:20:58;9.60;99.90
64685;DHT22;51109;47.414;18.954;2023-02-23T17:23:26;9.60;99.90
64685;DHT22;51109;47.414;18.954;2023-02-23T17:26:00;9.60;99.90
64685;DHT22;51109;47.414;18.954;2023-02-23T17:28:26;9.50;99.90
64685;DHT22;51109;47.414;18.954;2023-02-23T17:30:52;9.50;99.90
64685;DHT22;51109;47.414;18.954;2023-02-23T17:33:19;9.40;99.90
64685;DHT22;51109;47.414;18.954;2023-02-23T17:35:44;9.40;99.90
64685;DHT22;51109;47.414;18.954;2023-02-23T17:38:11;9.40;99.90
64685;DHT22;51109;47.414;18.954;2023-02-23T17:40:37;9.30;99.90
64685;DHT22;51109;47.414;18.954;2023-02-23T17:43:05;9.30;99.90
64685;DHT22;51109;47.414;18.954;2023-02-23T17:45:34;9.30;99.90
64685;DHT22;51109;47.414;18.954;2023-02-23T17:48:00;9.30;99.90
64685;DHT22;51109;47.414;18.954;2023-02-23T17:50:27;9.20;99.90
64685;DHT22;51109;47.414;18.954;2023-02-23T17:52:54;9.20;99.90
64685;DHT22;51109;47.414;18.954;2023-02-23T17:55:21;9.20;99.90
64685;DHT22;51109;47.414;18.954;2023-02-23T17:57:47;9.20;99.90
64685;DHT22;51109;47.414;18.954;2023-02-23T18:00:15;9.20;99.90
64685;DHT22;51109;47.414;18.954;2023-02-23T18:02:43;9.20;99.90
64685;DHT22;51109;47.414;18.954;2023-02-23T18:05:11;9.20;99.90
64685;DHT22;51109;47.414;18.954;2023-02-23T18:07:37;9.20;99.90
64685;DHT22;51109;47.414;18.954;2023-02-23T18:10:05;9.20;99.90
64685;DHT22;51109;47.414;18.954;2023-02-23T18:12:31;9.20;99.90
64685;DHT22;51109;47.414;18.954;2023-02-23T18:14:58;9.20;99.90
64685;DHT22;51109;47.414;18.954;2023-02-23T18:17:24;9.20;99.90
64685;DHT22;51109;47.414;18.954;2023-02-23T18:19:50;9.20;99.90
64685;DHT22;51109;47.414;18.954;2023-02-23T18:22:17;9.20;99.90